sensor_id;sensor_type;location;lat;lon;timestamp;pressure;altitude;pressure_sealevel;temperature
13497;BMP180;6820;49.374;8.452;2023-01-29T00:01:17;101954.06;;;8.22
13497;BMP180;6820;49.374;8.452;2023-01-29T00:05:18;101956.44;;;8.20
13497;BMP180;6820;49.374;8.452;2023-01-29T00:09:29;101954.19;;;8.23
13497;BMP180;6820;49.374;8.452;2023-01-29T00:13:32;101944.13;;;8.15
13497;BMP180;6820;49.374;8.452;2023-01-29T00:17:35;101937.91;;;8.12
13497;BMP180;6820;49.374;8.452;2023-01-29T00:21:36;101939.81;;;8.06
13497;BMP180;6820;49.374;8.452;2023-01-29T00:25:38;101940.91;;;8.08
13497;BMP180;6820;49.374;8.452;2023-01-29T00:29:39;101931.97;;;8.03
13497;BMP180;6820;49.374;8.452;2023-01-29T00:33:42;101931.06;;;7.94
13497;BMP180;6820;49.374;8.452;2023-01-29T00:37:43;101931.69;;;7.83
13497;BMP180;6820;49.374;8.452;2023-01-29T00:41:45;101943.63;;;7.76
13497;BMP180;6820;49.374;8.452;2023-01-29T00:46:05;101943.91;;;7.70
13497;BMP180;6820;49.374;8.452;2023-01-29T00:50:10;101935.72;;;7.64
13497;BMP180;6820;49.374;8.452;2023-01-29T00:54:11;101936.22;;;7.52
13497;BMP180;6820;49.374;8.452;2023-01-29T00:58:13;101937.84;;;7.52
13497;BMP180;6820;49.374;8.452;2023-01-29T01:02:16;101946.59;;;7.47
13497;BMP180;6820;49.374;8.452;2023-01-29T01:06:38;101953.72;;;7.42
13497;BMP180;6820;49.374;8.452;2023-01-29T01:10:40;101963.06;;;7.43
13497;BMP180;6820;49.374;8.452;2023-01-29T01:14:42;101963.06;;;7.43
13497;BMP180;6820;49.374;8.452;2023-01-29T01:18:47;101958.16;;;7.45
13497;BMP180;6820;49.374;8.452;2023-01-29T01:22:48;101962.75;;;7.40
13497;BMP180;6820;49.374;8.452;2023-01-29T01:26:50;101962.94;;;7.33
13497;BMP180;6820;49.374;8.452;2023-01-29T01:30:52;101955.94;;;7.39
13497;BMP180;6820;49.374;8.452;2023-01-29T01:34:54;101952.53;;;7.47
13497;BMP180;6820;49.374;8.452;2023-01-29T01:38:56;101951.06;;;7.58
13497;BMP180;6820;49.374;8.452;2023-01-29T01:42:59;101950.56;;;7.70
13497;BMP180;6820;49.374;8.452;2023-01-29T01:47:00;101945.09;;;7.74
13497;BMP180;6820;49.374;8.452;2023-01-29T01:51:04;101948.03;;;7.78
13497;BMP180;6820;49.374;8.452;2023-01-29T01:55:08;101949.66;;;7.86
13497;BMP180;6820;49.374;8.452;2023-01-29T01:59:14;101952.78;;;7.92
13497;BMP180;6820;49.374;8.452;2023-01-29T02:03:18;101946.38;;;7.95
13497;BMP180;6820;49.374;8.452;2023-01-29T02:07:41;101938.53;;;7.92
13497;BMP180;6820;49.374;8.452;2023-01-29T02:12:05;101949.34;;;7.91
13497;BMP180;6820;49.374;8.452;2023-01-29T02:16:07;101940.72;;;7.98
13497;BMP180;6820;49.374;8.452;2023-01-29T02:20:38;101935.69;;;7.98
13497;BMP180;6820;49.374;8.452;2023-01-29T02:24:57;101937.16;;;7.96
13497;BMP180;6820;49.374;8.452;2023-01-29T02:29:06;101928.25;;;7.91
13497;BMP180;6820;49.374;8.452;2023-01-29T02:37:50;101926.66;;;7.75
13497;BMP180;6820;49.374;8.452;2023-01-29T02:42:05;101911.84;;;7.69
13497;BMP180;6820;49.374;8.452;2023-01-29T02:46:35;101906.06;;;7.54
13497;BMP180;6820;49.374;8.452;2023-01-29T02:50:48;101908.00;;;7.48
13497;BMP180;6820;49.374;8.452;2023-01-29T02:54:58;101910.69;;;7.41
13497;BMP180;6820;49.374;8.452;2023-01-29T02:59:15;101913.06;;;7.39
13497;BMP180;6820;49.374;8.452;2023-01-29T03:03:47;101920.94;;;7.34
13497;BMP180;6820;49.374;8.452;2023-01-29T03:07:57;101918.56;;;7.27
13497;BMP180;6820;49.374;8.452;2023-01-29T03:12:12;101915.44;;;7.21
13497;BMP180;6820;49.374;8.452;2023-01-29T03:16:38;101913.06;;;7.14
13497;BMP180;6820;49.374;8.452;2023-01-29T03:20:48;101908.47;;;7.10
13497;BMP180;6820;49.374;8.452;2023-01-29T03:24:56;101919.59;;;7.04
13497;BMP180;6820;49.374;8.452;2023-01-29T03:29:20;101918.97;;;6.98
13497;BMP180;6820;49.374;8.452;2023-01-29T03:34:02;101930.56;;;6.96
13497;BMP180;6820;49.374;8.452;2023-01-29T03:38:09;101936.91;;;6.93
13497;BMP180;6820;49.374;8.452;2023-01-29T03:42:25;101948.19;;;6.88
13497;BMP180;6820;49.374;8.452;2023-01-29T03:46:31;101946.25;;;6.85
13497;BMP180;6820;49.374;8.452;2023-01-29T03:55:07;101941.50;;;6.80
13497;BMP180;6820;49.374;8.452;2023-01-29T03:59:17;101941.03;;;6.75
13497;BMP180;6820;49.374;8.452;2023-01-29T04:03:51;101945.91;;;6.74
13497;BMP180;6820;49.374;8.452;2023-01-29T04:08:01;101954.97;;;6.72
13497;BMP180;6820;49.374;8.452;2023-01-29T04:12:08;101949.63;;;6.69
13497;BMP180;6820;49.374;8.452;2023-01-29T04:16:22;101970.38;;;6.67
13497;BMP180;6820;49.374;8.452;2023-01-29T04:20:58;101966.03;;;6.66
13497;BMP180;6820;49.374;8.452;2023-01-29T04:25:06;101954.50;;;6.68
13497;BMP180;6820;49.374;8.452;2023-01-29T04:42:03;101944.91;;;6.80
13497;BMP180;6820;49.374;8.452;2023-01-29T04:46:20;101955.41;;;6.76
13497;BMP180;6820;49.374;8.452;2023-01-29T04:50:48;101950.06;;;6.73
13497;BMP180;6820;49.374;8.452;2023-01-29T04:55:15;101934.53;;;6.69
13497;BMP180;6820;49.374;8.452;2023-01-29T05:04:04;101913.44;;;6.60
13497;BMP180;6820;49.374;8.452;2023-01-29T05:08:10;101909.72;;;6.57
13497;BMP180;6820;49.374;8.452;2023-01-29T05:12:15;101924.53;;;6.54
13497;BMP180;6820;49.374;8.452;2023-01-29T05:16:25;101920.09;;;6.51
13497;BMP180;6820;49.374;8.452;2023-01-29T05:20:31;101904.69;;;6.48
13497;BMP180;6820;49.374;8.452;2023-01-29T05:24:34;101910.00;;;6.43
13497;BMP180;6820;49.374;8.452;2023-01-29T05:28:36;101923.88;;;6.39
13497;BMP180;6820;49.374;8.452;2023-01-29T05:32:38;101938.25;;;6.32
13497;BMP180;6820;49.374;8.452;2023-01-29T05:36:40;101936.31;;;6.30
13497;BMP180;6820;49.374;8.452;2023-01-29T05:40:42;101952.69;;;6.26
13497;BMP180;6820;49.374;8.452;2023-01-29T05:44:44;101944.84;;;6.23
13497;BMP180;6820;49.374;8.452;2023-01-29T05:48:45;101956.84;;;6.26
13497;BMP180;6820;49.374;8.452;2023-01-29T05:52:47;101949.47;;;6.27
13497;BMP180;6820;49.374;8.452;2023-01-29T05:56:48;101942.63;;;6.26
13497;BMP180;6820;49.374;8.452;2023-01-29T06:00:50;101946.38;;;6.30
13497;BMP180;6820;49.374;8.452;2023-01-29T06:04:51;101945.63;;;6.31
13497;BMP180;6820;49.374;8.452;2023-01-29T06:08:54;101944.84;;;6.23
13497;BMP180;6820;49.374;8.452;2023-01-29T06:12:56;101926.47;;;6.16
13497;BMP180;6820;49.374;8.452;2023-01-29T06:16:57;101932.09;;;6.13
13497;BMP180;6820;49.374;8.452;2023-01-29T06:21:00;101932.38;;;6.16
13497;BMP180;6820;49.374;8.452;2023-01-29T06:25:03;101940.25;;;6.19
13497;BMP180;6820;49.374;8.452;2023-01-29T06:29:04;101942.31;;;6.23
13497;BMP180;6820;49.374;8.452;2023-01-29T06:33:06;101943.38;;;6.25
13497;BMP180;6820;49.374;8.452;2023-01-29T06:37:08;101949.00;;;6.23
13497;BMP180;6820;49.374;8.452;2023-01-29T06:41:11;101950.72;;;6.15
13497;BMP180;6820;49.374;8.452;2023-01-29T06:45:12;101948.47;;;6.10
13497;BMP180;6820;49.374;8.452;2023-01-29T06:49:14;101941.41;;;6.14
13497;BMP180;6820;49.374;8.452;2023-01-29T06:53:16;101939.63;;;6.13
13497;BMP180;6820;49.374;8.452;2023-01-29T06:57:21;101931.34;;;6.14
13497;BMP180;6820;49.374;8.452;2023-01-29T07:01:23;101939.38;;;6.19
13497;BMP180;6820;49.374;8.452;2023-01-29T07:05:36;101935.69;;;6.24
13497;BMP180;6820;49.374;8.452;2023-01-29T07:09:42;101945.91;;;6.25
13497;BMP180;6820;49.374;8.452;2023-01-29T07:13:43;101945.16;;;6.26
13497;BMP180;6820;49.374;8.452;2023-01-29T07:17:58;101947.34;;;6.23
13497;BMP180;6820;49.374;8.452;2023-01-29T07:22:00;101954.03;;;6.23
13497;BMP180;6820;49.374;8.452;2023-01-29T07:26:04;101948.41;;;6.25
13497;BMP180;6820;49.374;8.452;2023-01-29T07:30:06;101945.13;;;6.18
13497;BMP180;6820;49.374;8.452;2023-01-29T07:34:08;101945.28;;;6.19
13497;BMP180;6820;49.374;8.452;2023-01-29T07:38:10;101945.91;;;6.25
13497;BMP180;6820;49.374;8.452;2023-01-29T07:42:12;101951.53;;;6.31
13497;BMP180;6820;49.374;8.452;2023-01-29T07:46:13;101953.34;;;6.32
13497;BMP180;6820;49.374;8.452;2023-01-29T07:50:15;101954.06;;;6.31
13497;BMP180;6820;49.374;8.452;2023-01-29T07:54:17;101961.28;;;6.20
13497;BMP180;6820;49.374;8.452;2023-01-29T07:58:19;101961.31;;;6.05
13497;BMP180;6820;49.374;8.452;2023-01-29T08:02:21;101981.31;;;6.03
13497;BMP180;6820;49.374;8.452;2023-01-29T08:06:22;101988.88;;;6.03
13497;BMP180;6820;49.374;8.452;2023-01-29T08:10:24;101995.97;;;6.07
13497;BMP180;6820;49.374;8.452;2023-01-29T08:14:26;101992.50;;;6.13
13497;BMP180;6820;49.374;8.452;2023-01-29T08:18:28;101992.53;;;6.22
13497;BMP180;6820;49.374;8.452;2023-01-29T08:22:29;102001.31;;;6.34
13497;BMP180;6820;49.374;8.452;2023-01-29T08:26:31;101986.72;;;6.46
13497;BMP180;6820;49.374;8.452;2023-01-29T08:30:33;101991.97;;;6.56
13497;BMP180;6820;49.374;8.452;2023-01-29T08:34:35;101979.88;;;6.69
13497;BMP180;6820;49.374;8.452;2023-01-29T08:38:37;101976.16;;;6.82
13497;BMP180;6820;49.374;8.452;2023-01-29T08:42:38;101975.19;;;6.97
13497;BMP180;6820;49.374;8.452;2023-01-29T08:46:41;101987.81;;;7.14
13497;BMP180;6820;49.374;8.452;2023-01-29T08:50:43;101983.97;;;7.26
13497;BMP180;6820;49.374;8.452;2023-01-29T08:54:44;102002.09;;;7.38
13497;BMP180;6820;49.374;8.452;2023-01-29T08:58:46;102009.66;;;7.47
13497;BMP180;6820;49.374;8.452;2023-01-29T09:02:47;102007.44;;;7.41
13497;BMP180;6820;49.374;8.452;2023-01-29T09:06:49;101987.38;;;7.34
13497;BMP180;6820;49.374;8.452;2023-01-29T09:10:51;101961.28;;;7.42
13497;BMP180;6820;49.374;8.452;2023-01-29T09:14:52;101943.91;;;7.62
13497;BMP180;6820;49.374;8.452;2023-01-29T09:18:54;101923.84;;;7.80
13497;BMP180;6820;49.374;8.452;2023-01-29T09:22:55;101916.25;;;7.97
13497;BMP180;6820;49.374;8.452;2023-01-29T09:26:59;101921.25;;;8.05
13497;BMP180;6820;49.374;8.452;2023-01-29T09:31:01;101911.44;;;8.17
13497;BMP180;6820;49.374;8.452;2023-01-29T09:35:04;101921.03;;;8.37
13497;BMP180;6820;49.374;8.452;2023-01-29T09:39:06;101930.72;;;8.59
13497;BMP180;6820;49.374;8.452;2023-01-29T09:43:24;101936.44;;;8.75
13497;BMP180;6820;49.374;8.452;2023-01-29T09:47:27;101947.16;;;8.73
13497;BMP180;6820;49.374;8.452;2023-01-29T09:51:34;101952.47;;;8.76
13497;BMP180;6820;49.374;8.452;2023-01-29T09:55:49;101955.72;;;8.83
13497;BMP180;6820;49.374;8.452;2023-01-29T09:59:51;101952.31;;;9.01
13497;BMP180;6820;49.374;8.452;2023-01-29T10:04:07;101952.66;;;9.13
13497;BMP180;6820;49.374;8.452;2023-01-29T10:12:49;101977.31;;;8.98
13497;BMP180;6820;49.374;8.452;2023-01-29T10:17:04;101975.66;;;9.07
13497;BMP180;6820;49.374;8.452;2023-01-29T10:25:40;101971.84;;;9.20
13497;BMP180;6820;49.374;8.452;2023-01-29T10:29:44;101961.66;;;9.28
13497;BMP180;6820;49.374;8.452;2023-01-29T10:33:50;101951.19;;;9.34
13497;BMP180;6820;49.374;8.452;2023-01-29T10:38:17;101945.72;;;9.29
13497;BMP180;6820;49.374;8.452;2023-01-29T10:42:23;101948.50;;;9.32
13497;BMP180;6820;49.374;8.452;2023-01-29T11:00:27;101935.75;;;9.49
13497;BMP180;6820;49.374;8.452;2023-01-29T11:04:31;101917.81;;;9.38
13497;BMP180;6820;49.374;8.452;2023-01-29T11:13:02;101904.19;;;9.27
13497;BMP180;6820;49.374;8.452;2023-01-29T11:17:04;101896.16;;;9.13
13497;BMP180;6820;49.374;8.452;2023-01-29T11:21:06;101877.69;;;9.14
13497;BMP180;6820;49.374;8.452;2023-01-29T11:25:16;101879.31;;;9.13
13497;BMP180;6820;49.374;8.452;2023-01-29T11:29:43;101876.19;;;9.16
13497;BMP180;6820;49.374;8.452;2023-01-29T11:33:45;101878.34;;;9.12
13497;BMP180;6820;49.374;8.452;2023-01-29T11:37:47;101871.63;;;9.12
13497;BMP180;6820;49.374;8.452;2023-01-29T11:42:00;101862.31;;;9.03
13497;BMP180;6820;49.374;8.452;2023-01-29T11:46:10;101837.44;;;9.07
13497;BMP180;6820;49.374;8.452;2023-01-29T11:50:25;101838.41;;;8.99
13497;BMP180;6820;49.374;8.452;2023-01-29T11:54:31;101837.44;;;8.89
13497;BMP180;6820;49.374;8.452;2023-01-29T11:58:34;101817.50;;;8.92
13497;BMP180;6820;49.374;8.452;2023-01-29T12:02:51;101806.94;;;9.06
13497;BMP180;6820;49.374;8.452;2023-01-29T12:06:54;101807.63;;;9.13
13497;BMP180;6820;49.374;8.452;2023-01-29T12:11:10;101796.38;;;9.10
13497;BMP180;6820;49.374;8.452;2023-01-29T12:15:17;101782.97;;;9.11
13497;BMP180;6820;49.374;8.452;2023-01-29T12:19:54;101773.03;;;9.22
13497;BMP180;6820;49.374;8.452;2023-01-29T12:24:27;101766.63;;;9.35
13497;BMP180;6820;49.374;8.452;2023-01-29T12:33:12;101760.66;;;9.63
13497;BMP180;6820;49.374;8.452;2023-01-29T12:37:22;101746.25;;;9.72
13497;BMP180;6820;49.374;8.452;2023-01-29T12:41:35;101740.56;;;9.74
13497;BMP180;6820;49.374;8.452;2023-01-29T12:45:38;101740.56;;;9.74
13497;BMP180;6820;49.374;8.452;2023-01-29T12:49:42;101743.22;;;9.85
13497;BMP180;6820;49.374;8.452;2023-01-29T12:53:56;101743.25;;;9.75
13497;BMP180;6820;49.374;8.452;2023-01-29T12:58:04;101733.09;;;9.66
13497;BMP180;6820;49.374;8.452;2023-01-29T13:06:27;101724.94;;;10.07
13497;BMP180;6820;49.374;8.452;2023-01-29T13:10:36;101713.66;;;10.14
13497;BMP180;6820;49.374;8.452;2023-01-29T13:14:46;101708.72;;;10.15
13497;BMP180;6820;49.374;8.452;2023-01-29T13:19:01;101706.06;;;10.24
13497;BMP180;6820;49.374;8.452;2023-01-29T13:23:16;101711.00;;;10.12
13497;BMP180;6820;49.374;8.452;2023-01-29T13:27:23;101705.28;;;10.15
13497;BMP180;6820;49.374;8.452;2023-01-29T13:31:29;101692.00;;;10.17
13497;BMP180;6820;49.374;8.452;2023-01-29T13:35:32;101683.13;;;10.22
13497;BMP180;6820;49.374;8.452;2023-01-29T13:39:45;101688.94;;;10.31
13497;BMP180;6820;49.374;8.452;2023-01-29T13:43:49;101673.34;;;10.46
13497;BMP180;6820;49.374;8.452;2023-01-29T13:47:51;101679.41;;;10.58
13497;BMP180;6820;49.374;8.452;2023-01-29T13:51:53;101672.41;;;10.65
13497;BMP180;6820;49.374;8.452;2023-01-29T13:56:28;101677.44;;;10.75
13497;BMP180;6820;49.374;8.452;2023-01-29T14:04:35;101656.97;;;10.94
13497;BMP180;6820;49.374;8.452;2023-01-29T14:08:39;101650.06;;;10.71
13497;BMP180;6820;49.374;8.452;2023-01-29T14:12:42;101656.19;;;10.64
13497;BMP180;6820;49.374;8.452;2023-01-29T14:16:44;101644.81;;;10.59
13497;BMP180;6820;49.374;8.452;2023-01-29T14:24:49;101649.81;;;10.37
13497;BMP180;6820;49.374;8.452;2023-01-29T14:33:04;101647.56;;;10.11
13497;BMP180;6820;49.374;8.452;2023-01-29T14:41:24;101649.59;;;9.95
13497;BMP180;6820;49.374;8.452;2023-01-29T14:49:50;101641.38;;;9.88
13497;BMP180;6820;49.374;8.452;2023-01-29T14:58:01;101647.66;;;9.83
13497;BMP180;6820;49.374;8.452;2023-01-29T15:02:15;101648.81;;;9.76
13497;BMP180;6820;49.374;8.452;2023-01-29T15:06:37;101643.25;;;9.71
13497;BMP180;6820;49.374;8.452;2023-01-29T15:10:50;101650.03;;;9.62
13497;BMP180;6820;49.374;8.452;2023-01-29T15:15:35;101646.91;;;9.54
13497;BMP180;6820;49.374;8.452;2023-01-29T15:19:41;101643.81;;;9.48
13497;BMP180;6820;49.374;8.452;2023-01-29T15:23:46;101651.41;;;9.48
13497;BMP180;6820;49.374;8.452;2023-01-29T15:27:49;101645.22;;;9.45
13497;BMP180;6820;49.374;8.452;2023-01-29T15:31:51;101641.41;;;9.40
13497;BMP180;6820;49.374;8.452;2023-01-29T15:35:58;101635.06;;;9.35
13497;BMP180;6820;49.374;8.452;2023-01-29T15:40:14;101634.81;;;9.32
13497;BMP180;6820;49.374;8.452;2023-01-29T15:44:21;101642.16;;;9.29
13497;BMP180;6820;49.374;8.452;2023-01-29T15:48:30;101646.06;;;9.26
13497;BMP180;6820;49.374;8.452;2023-01-29T15:52:33;101643.91;;;9.20
13497;BMP180;6820;49.374;8.452;2023-01-29T16:00:53;101643.88;;;9.11
13497;BMP180;6820;49.374;8.452;2023-01-29T16:04:55;101634.00;;;9.04
13497;BMP180;6820;49.374;8.452;2023-01-29T16:08:57;101635.38;;;9.00
13497;BMP180;6820;49.374;8.452;2023-01-29T16:13:01;101621.81;;;8.90
13497;BMP180;6820;49.374;8.452;2023-01-29T16:17:21;101612.41;;;8.79
13497;BMP180;6820;49.374;8.452;2023-01-29T16:21:32;101609.38;;;8.73
13497;BMP180;6820;49.374;8.452;2023-01-29T16:25:37;101605.56;;;8.68
13497;BMP180;6820;49.374;8.452;2023-01-29T16:29:39;101611.84;;;8.63
13497;BMP180;6820;49.374;8.452;2023-01-29T16:33:42;101610.44;;;8.57
13497;BMP180;6820;49.374;8.452;2023-01-29T16:37:47;101608.25;;;8.51
13497;BMP180;6820;49.374;8.452;2023-01-29T16:42:20;101604.19;;;8.44
13497;BMP180;6820;49.374;8.452;2023-01-29T16:50:31;101597.16;;;8.31
13497;BMP180;6820;49.374;8.452;2023-01-29T16:54:41;101594.09;;;8.25
13497;BMP180;6820;49.374;8.452;2023-01-29T16:58:48;101590.44;;;8.22
13497;BMP180;6820;49.374;8.452;2023-01-29T17:03:03;101585.22;;;8.20
13497;BMP180;6820;49.374;8.452;2023-01-29T17:07:14;101580.19;;;8.20
13497;BMP180;6820;49.374;8.452;2023-01-29T17:11:24;101585.13;;;8.19
13497;BMP180;6820;49.374;8.452;2023-01-29T17:19:43;101594.44;;;8.20
13497;BMP180;6820;49.374;8.452;2023-01-29T17:23:44;101581.81;;;8.20
13497;BMP180;6820;49.374;8.452;2023-01-29T17:27:46;101591.81;;;8.19
13497;BMP180;6820;49.374;8.452;2023-01-29T17:31:52;101586.50;;;8.16
13497;BMP180;6820;49.374;8.452;2023-01-29T17:35:53;101593.91;;;8.14
13497;BMP180;6820;49.374;8.452;2023-01-29T17:39:55;101589.31;;;8.10
13497;BMP180;6820;49.374;8.452;2023-01-29T17:43:56;101606.88;;;8.09
13497;BMP180;6820;49.374;8.452;2023-01-29T17:47:58;101609.25;;;8.07
13497;BMP180;6820;49.374;8.452;2023-01-29T17:52:00;101626.06;;;8.07
13497;BMP180;6820;49.374;8.452;2023-01-29T17:56:02;101628.16;;;8.02
13497;BMP180;6820;49.374;8.452;2023-01-29T18:04:14;101644.50;;;7.97
13497;BMP180;6820;49.374;8.452;2023-01-29T18:08:31;101652.44;;;7.92
13497;BMP180;6820;49.374;8.452;2023-01-29T18:12:33;101657.81;;;7.87
13497;BMP180;6820;49.374;8.452;2023-01-29T18:16:35;101652.19;;;7.81
13497;BMP180;6820;49.374;8.452;2023-01-29T18:20:40;101655.78;;;7.74
13497;BMP180;6820;49.374;8.452;2023-01-29T18:24:42;101655.53;;;7.71
13497;BMP180;6820;49.374;8.452;2023-01-29T18:28:44;101652.72;;;7.68
13497;BMP180;6820;49.374;8.452;2023-01-29T18:32:45;101647.94;;;7.71
13497;BMP180;6820;49.374;8.452;2023-01-29T18:36:48;101640.50;;;7.73
13497;BMP180;6820;49.374;8.452;2023-01-29T18:40:50;101643.19;;;7.74
13497;BMP180;6820;49.374;8.452;2023-01-29T18:44:52;101639.91;;;7.75
13497;BMP180;6820;49.374;8.452;2023-01-29T18:48:53;101643.94;;;7.73
13497;BMP180;6820;49.374;8.452;2023-01-29T18:52:55;101642.75;;;7.70
13497;BMP180;6820;49.374;8.452;2023-01-29T18:56:57;101636.69;;;7.68
13497;BMP180;6820;49.374;8.452;2023-01-29T19:01:15;101636.56;;;7.66
13497;BMP180;6820;49.374;8.452;2023-01-29T19:05:17;101638.94;;;7.65
13497;BMP180;6820;49.374;8.452;2023-01-29T19:09:21;101631.06;;;7.62
13497;BMP180;6820;49.374;8.452;2023-01-29T19:13:23;101645.22;;;7.60
13497;BMP180;6820;49.374;8.452;2023-01-29T19:17:26;101625.47;;;7.56
13497;BMP180;6820;49.374;8.452;2023-01-29T19:21:28;101623.72;;;7.55
13497;BMP180;6820;49.374;8.452;2023-01-29T19:25:30;101633.53;;;7.52
13497;BMP180;6820;49.374;8.452;2023-01-29T19:29:33;101634.75;;;7.47
13497;BMP180;6820;49.374;8.452;2023-01-29T19:33:34;101631.34;;;7.47
13497;BMP180;6820;49.374;8.452;2023-01-29T19:37:36;101627.63;;;7.43
13497;BMP180;6820;49.374;8.452;2023-01-29T19:41:38;101628.53;;;7.44
13497;BMP180;6820;49.374;8.452;2023-01-29T19:45:40;101614.00;;;7.41
13497;BMP180;6820;49.374;8.452;2023-01-29T19:49:50;101608.81;;;7.40
13497;BMP180;6820;49.374;8.452;2023-01-29T19:53:52;101613.75;;;7.38
13497;BMP180;6820;49.374;8.452;2023-01-29T19:57:54;101613.59;;;7.37
13497;BMP180;6820;49.374;8.452;2023-01-29T20:01:57;101617.75;;;7.36
13497;BMP180;6820;49.374;8.452;2023-01-29T20:06:04;101613.44;;;7.35
13497;BMP180;6820;49.374;8.452;2023-01-29T20:10:07;101607.38;;;7.33
13497;BMP180;6820;49.374;8.452;2023-01-29T20:14:10;101612.25;;;7.32
13497;BMP180;6820;49.374;8.452;2023-01-29T20:18:12;101611.38;;;7.31
13497;BMP180;6820;49.374;8.452;2023-01-29T20:22:14;101613.91;;;7.31
13497;BMP180;6820;49.374;8.452;2023-01-29T20:26:16;101620.31;;;7.28
13497;BMP180;6820;49.374;8.452;2023-01-29T20:30:18;101612.59;;;7.27
13497;BMP180;6820;49.374;8.452;2023-01-29T20:34:20;101603.13;;;7.24
13497;BMP180;6820;49.374;8.452;2023-01-29T20:38:22;101606.41;;;7.23
13497;BMP180;6820;49.374;8.452;2023-01-29T20:42:25;101603.00;;;7.23
13497;BMP180;6820;49.374;8.452;2023-01-29T20:46:27;101597.94;;;7.23
13497;BMP180;6820;49.374;8.452;2023-01-29T20:50:29;101600.31;;;7.21
13497;BMP180;6820;49.374;8.452;2023-01-29T20:54:30;101594.38;;;7.21
13497;BMP180;6820;49.374;8.452;2023-01-29T20:58:34;101597.22;;;7.15
13497;BMP180;6820;49.374;8.452;2023-01-29T21:02:36;101607.16;;;7.14
13497;BMP180;6820;49.374;8.452;2023-01-29T21:06:37;101610.88;;;7.09
13497;BMP180;6820;49.374;8.452;2023-01-29T21:10:39;101611.53;;;7.06
13497;BMP180;6820;49.374;8.452;2023-01-29T21:14:43;101612.69;;;7.10
13497;BMP180;6820;49.374;8.452;2023-01-29T21:18:46;101608.97;;;7.15
13497;BMP180;6820;49.374;8.452;2023-01-29T21:22:47;101603.00;;;7.23
13497;BMP180;6820;49.374;8.452;2023-01-29T21:26:49;101606.06;;;7.28
13497;BMP180;6820;49.374;8.452;2023-01-29T21:31:01;101603.22;;;7.34
13497;BMP180;6820;49.374;8.452;2023-01-29T21:35:03;101585.84;;;7.37
13497;BMP180;6820;49.374;8.452;2023-01-29T21:39:05;101582.56;;;7.38
13497;BMP180;6820;49.374;8.452;2023-01-29T21:43:17;101576.38;;;7.34
13497;BMP180;6820;49.374;8.452;2023-01-29T21:47:18;101573.28;;;7.28
13497;BMP180;6820;49.374;8.452;2023-01-29T21:51:22;101571.69;;;7.21
13497;BMP180;6820;49.374;8.452;2023-01-29T21:55:24;101573.50;;;7.13
13497;BMP180;6820;49.374;8.452;2023-01-29T21:59:25;101556.63;;;7.12
13497;BMP180;6820;49.374;8.452;2023-01-29T22:03:27;101557.22;;;7.10
13497;BMP180;6820;49.374;8.452;2023-01-29T22:07:29;101549.50;;;7.08
13497;BMP180;6820;49.374;8.452;2023-01-29T22:11:30;101531.47;;;7.04
13497;BMP180;6820;49.374;8.452;2023-01-29T22:15:32;101530.56;;;7.03
13497;BMP180;6820;49.374;8.452;2023-01-29T22:19:34;101523.16;;;7.05
13497;BMP180;6820;49.374;8.452;2023-01-29T22:23:35;101514.56;;;7.03
13497;BMP180;6820;49.374;8.452;2023-01-29T22:27:37;101519.03;;;6.97
13497;BMP180;6820;49.374;8.452;2023-01-29T22:31:39;101521.41;;;6.96
13497;BMP180;6820;49.374;8.452;2023-01-29T22:35:40;101526.44;;;6.96
13497;BMP180;6820;49.374;8.452;2023-01-29T22:39:42;101519.81;;;6.96
13497;BMP180;6820;49.374;8.452;2023-01-29T22:43:43;101517.28;;;6.96
13497;BMP180;6820;49.374;8.452;2023-01-29T22:47:45;101505.25;;;7.02
13497;BMP180;6820;49.374;8.452;2023-01-29T22:51:47;101502.22;;;7.06
13497;BMP180;6820;49.374;8.452;2023-01-29T22:55:53;101505.94;;;7.09
13497;BMP180;6820;49.374;8.452;2023-01-29T22:59:55;101489.31;;;7.11
13497;BMP180;6820;49.374;8.452;2023-01-29T23:03:57;101489.13;;;7.18
13497;BMP180;6820;49.374;8.452;2023-01-29T23:07:59;101481.22;;;7.24
13497;BMP180;6820;49.374;8.452;2023-01-29T23:12:00;101475.22;;;7.31
13497;BMP180;6820;49.374;8.452;2023-01-29T23:16:02;101463.59;;;7.42
13497;BMP180;6820;49.374;8.452;2023-01-29T23:20:04;101449.88;;;7.48
13497;BMP180;6820;49.374;8.452;2023-01-29T23:24:06;101447.63;;;7.51
13497;BMP180;6820;49.374;8.452;2023-01-29T23:28:08;101453.00;;;7.46
13497;BMP180;6820;49.374;8.452;2023-01-29T23:32:12;101453.34;;;7.40
13497;BMP180;6820;49.374;8.452;2023-01-29T23:36:15;101468.22;;;7.37
13497;BMP180;6820;49.374;8.452;2023-01-29T23:40:16;101455.16;;;7.41
13497;BMP180;6820;49.374;8.452;2023-01-29T23:44:18;101437.84;;;7.36
13497;BMP180;6820;49.374;8.452;2023-01-29T23:48:21;101429.44;;;7.27
13497;BMP180;6820;49.374;8.452;2023-01-29T23:52:23;101421.34;;;7.21
13497;BMP180;6820;49.374;8.452;2023-01-29T23:56:24;101424.66;;;7.30
